createdAt,value
2022-08-02T00:02:45.383Z,23.50
2022-08-02T00:06:46.629Z,23.30
2022-08-02T00:10:48.141Z,23.30
2022-08-02T00:14:49.354Z,23.20
2022-08-02T00:18:50.813Z,23.20
2022-08-02T00:22:52.641Z,23.00
2022-08-02T00:26:53.955Z,22.90
2022-08-02T00:30:57.770Z,22.80
2022-08-02T00:34:58.961Z,22.80
2022-08-02T00:39:00.199Z,22.90
2022-08-02T00:43:08.257Z,23.00
2022-08-02T00:47:09.639Z,22.90
2022-08-02T00:51:12.057Z,23.00
2022-08-02T00:55:13.374Z,22.90
2022-08-02T00:59:16.397Z,22.70
2022-08-02T01:03:17.708Z,22.60
2022-08-02T01:07:19.029Z,22.40
2022-08-02T01:11:20.157Z,22.40
2022-08-02T01:15:22.191Z,22.50
2022-08-02T01:19:49.038Z,22.50
2022-08-02T01:24:05.696Z,22.50
2022-08-02T01:28:33.637Z,22.30
2022-08-02T01:32:38.408Z,22.20
2022-08-02T01:36:43.407Z,22.10
2022-08-02T01:40:46.521Z,22.10
2022-08-02T01:44:50.466Z,22.30
2022-08-02T01:48:55.554Z,22.30
2022-08-02T01:52:59.320Z,22.40
2022-08-02T01:57:03.377Z,22.40
2022-08-02T02:01:07.246Z,22.40
2022-08-02T02:05:11.652Z,22.40
2022-08-02T02:09:14.788Z,22.30
2022-08-02T02:13:19.456Z,22.30
2022-08-02T02:18:10.615Z,22.20
2022-08-02T02:21:25.189Z,22.20
2022-08-02T02:25:35.606Z,22.10
2022-08-02T02:29:32.148Z,22.00
2022-08-02T02:33:36.790Z,21.80
2022-08-02T02:37:39.854Z,21.70
2022-08-02T02:41:43.686Z,21.70
2022-08-02T02:45:46.531Z,21.60
2022-08-02T02:49:49.964Z,21.60
2022-08-02T02:54:34.645Z,21.50
2022-08-02T02:57:56.174Z,21.50
2022-08-02T03:01:58.751Z,21.50
2022-08-02T03:06:00.634Z,21.50
2022-08-02T03:10:06.852Z,21.40
2022-08-02T03:14:10.905Z,21.40
2022-08-02T03:18:31.187Z,21.40
2022-08-02T03:22:32.291Z,21.40
2022-08-02T03:26:34.441Z,21.40
2022-08-02T03:30:35.906Z,21.30
2022-08-02T03:34:37.149Z,21.20
2022-08-02T03:38:39.977Z,21.10
2022-08-02T03:42:41.508Z,21.10
2022-08-02T03:46:43.146Z,21.10
2022-08-02T03:50:46.769Z,20.90
2022-08-02T03:54:48.088Z,20.80
2022-08-02T03:58:49.561Z,20.70
2022-08-02T04:02:51.359Z,20.70
2022-08-02T04:06:53.027Z,20.80
2022-08-02T04:11:12.731Z,20.80
2022-08-02T04:15:14.661Z,20.90
2022-08-02T04:19:22.006Z,20.90
2022-08-02T04:23:25.045Z,20.90
2022-08-02T04:27:51.032Z,20.90
2022-08-02T04:31:33.204Z,20.90
2022-08-02T04:35:34.819Z,20.80
2022-08-02T04:39:36.048Z,20.90
2022-08-02T04:43:37.282Z,20.90
2022-08-02T04:48:02.473Z,21.10
2022-08-02T04:51:42.938Z,21.20
2022-08-02T04:55:44.166Z,21.10
2022-08-02T04:59:45.399Z,20.90
2022-08-02T05:03:46.842Z,21.00
2022-08-02T05:07:48.689Z,21.20
2022-08-02T05:11:55.034Z,21.50
2022-08-02T05:15:52.942Z,21.50
2022-08-02T05:19:54.282Z,21.60
2022-08-02T05:23:55.524Z,21.70
2022-08-02T05:27:56.779Z,22.10
2022-08-02T05:31:58.004Z,22.20
2022-08-02T05:35:59.326Z,22.30
2022-08-02T05:40:00.803Z,22.40
2022-08-02T05:44:03.414Z,22.60
2022-08-02T05:48:05.416Z,22.70
2022-08-02T05:52:10.722Z,23.00
2022-08-02T05:56:28.225Z,23.10
2022-08-02T06:00:32.136Z,23.10
2022-08-02T06:04:45.683Z,23.00
2022-08-02T06:08:50.114Z,23.10
2022-08-02T06:13:07.164Z,23.20
2022-08-02T06:17:08.982Z,23.40
2022-08-02T06:22:33.328Z,23.80
2022-08-02T06:25:48.063Z,24.00
2022-08-02T06:29:20.313Z,24.40
2022-08-02T06:33:24.333Z,24.40
2022-08-02T06:37:50.117Z,24.30
2022-08-02T06:41:53.944Z,24.10
2022-08-02T06:45:55.708Z,24.30
2022-08-02T06:49:58.782Z,24.50
2022-08-02T06:54:00.107Z,24.90
2022-08-02T06:58:02.623Z,25.00
2022-08-02T07:02:03.863Z,25.10
2022-08-02T07:06:08.537Z,25.00
2022-08-02T07:10:10.064Z,25.10
2022-08-02T07:14:11.389Z,25.50
2022-08-02T07:18:14.518Z,25.80
2022-08-02T07:22:17.660Z,25.50
2022-08-02T07:26:18.920Z,25.90
2022-08-02T07:30:20.166Z,26.30
2022-08-02T07:34:21.414Z,26.70
2022-08-02T07:38:24.198Z,26.70
2022-08-02T07:42:28.534Z,27.10
2022-08-02T07:46:29.919Z,26.60
2022-08-02T07:50:31.395Z,25.90
2022-08-02T07:54:33.716Z,26.50
2022-08-02T07:58:34.862Z,26.70
2022-08-02T08:02:36.495Z,26.90
2022-08-02T08:06:37.713Z,27.00
2022-08-02T08:10:41.508Z,26.90
2022-08-02T08:14:43.569Z,26.60
2022-08-02T08:18:44.804Z,26.80
2022-08-02T08:22:46.041Z,26.80
2022-08-02T08:26:47.275Z,26.80
2022-08-02T08:30:48.611Z,27.30
2022-08-02T08:34:50.614Z,27.00
2022-08-02T08:38:51.934Z,27.40
2022-08-02T08:42:53.085Z,27.80
2022-08-02T08:46:56.401Z,28.10
2022-08-02T08:51:01.347Z,28.30
2022-08-02T08:55:04.816Z,29.10
2022-08-02T08:59:06.061Z,29.70
2022-08-02T09:03:08.538Z,29.70
2022-08-02T09:07:09.944Z,30.30
2022-08-02T09:11:16.944Z,30.60
2022-08-02T09:15:21.990Z,30.60
2022-08-02T09:19:25.252Z,30.30
2022-08-02T09:23:36.032Z,30.40
2022-08-02T09:27:38.740Z,30.90
2022-08-02T09:31:45.394Z,31.10
2022-08-02T09:36:05.114Z,31.80
2022-08-02T09:39:47.585Z,32.10
2022-08-02T09:43:58.815Z,32.40
2022-08-02T09:47:53.164Z,32.90
2022-08-02T09:51:56.366Z,33.00
2022-08-02T09:55:57.617Z,32.90
2022-08-02T09:59:59.768Z,33.50
2022-08-02T10:04:04.112Z,34.00
2022-08-02T10:08:06.045Z,34.00
2022-08-02T10:12:07.676Z,33.50
2022-08-02T10:16:09.794Z,33.00
2022-08-02T10:20:11.990Z,33.30
2022-08-02T10:24:19.592Z,33.80
2022-08-02T10:28:24.816Z,33.40
2022-08-02T10:32:32.627Z,33.30
2022-08-02T10:36:36.496Z,32.10
2022-08-02T10:40:46.852Z,31.20
2022-08-02T10:44:48.189Z,31.40
2022-08-02T10:49:36.281Z,31.20
2022-08-02T10:53:29.063Z,31.30
2022-08-02T10:57:33.969Z,32.20
2022-08-02T11:01:40.192Z,33.00
2022-08-02T11:05:42.194Z,33.50
2022-08-02T11:09:50.643Z,32.70
2022-08-02T11:14:07.640Z,31.80
2022-08-02T11:18:08.785Z,32.40
2022-08-02T11:22:12.977Z,32.90
2022-08-02T11:26:34.720Z,32.90
2022-08-02T11:30:37.027Z,33.50
2022-08-02T11:34:38.775Z,34.00
2022-08-02T11:38:40.016Z,34.20
2022-08-02T11:42:43.934Z,33.70
2022-08-02T11:46:47.174Z,34.00
2022-08-02T11:50:52.181Z,34.30
2022-08-02T11:54:53.422Z,34.30
2022-08-02T11:59:09.116Z,33.80
2022-08-02T12:03:11.176Z,33.70
2022-08-02T12:07:13.042Z,33.20
2022-08-02T12:11:18.564Z,32.70
2022-08-02T12:15:46.446Z,33.10
2022-08-02T12:19:47.808Z,33.40
2022-08-02T12:23:59.416Z,32.90
2022-08-02T12:27:53.568Z,33.10
2022-08-02T12:31:58.147Z,33.40
2022-08-02T12:35:59.412Z,33.90
2022-08-02T12:40:25.213Z,33.90
2022-08-02T12:44:24.358Z,34.10
2022-08-02T12:48:37.744Z,34.40
2022-08-02T12:52:38.688Z,34.00
2022-08-02T12:56:39.997Z,33.90
2022-08-02T13:00:41.376Z,34.30
2022-08-02T13:04:49.847Z,34.10
2022-08-02T13:08:46.927Z,33.90
2022-08-02T13:12:48.883Z,33.90
2022-08-02T13:16:50.821Z,34.10
2022-08-02T13:20:52.233Z,33.70
2022-08-02T13:24:55.889Z,34.10
2022-08-02T13:28:57.493Z,34.30
2022-08-02T13:33:01.145Z,34.00
2022-08-02T13:37:03.401Z,34.00
2022-08-02T13:41:10.919Z,34.30
2022-08-02T13:45:14.291Z,34.10
2022-08-02T13:49:19.596Z,34.20
2022-08-02T13:53:19.199Z,34.00
2022-08-02T13:57:20.427Z,33.00
2022-08-02T14:01:21.720Z,33.60
2022-08-02T14:05:25.624Z,33.20
2022-08-02T14:09:27.855Z,33.10
2022-08-02T14:13:29.288Z,33.60
2022-08-02T14:17:32.291Z,33.50
2022-08-02T14:21:46.601Z,33.40
2022-08-02T14:25:36.754Z,33.20
2022-08-02T14:29:37.989Z,33.20
2022-08-02T14:33:39.206Z,33.60
2022-08-02T14:37:40.741Z,33.60
2022-08-02T14:41:59.645Z,33.10
2022-08-02T14:45:44.996Z,33.00
2022-08-02T14:49:50.090Z,33.10
2022-08-02T14:54:02.984Z,33.80
2022-08-02T14:57:52.618Z,34.00
2022-08-02T15:01:54.592Z,33.90
2022-08-02T15:05:55.975Z,33.60
2022-08-02T15:09:57.183Z,33.70
2022-08-02T15:13:59.145Z,33.60
2022-08-02T15:18:00.954Z,33.80
2022-08-02T15:22:03.294Z,33.20
2022-08-02T15:26:05.117Z,33.50
2022-08-02T15:30:08.235Z,33.10
2022-08-02T15:34:09.571Z,33.30
2022-08-02T15:38:10.985Z,33.30
2022-08-02T15:42:12.991Z,33.10
2022-08-02T15:46:14.283Z,32.60
2022-08-02T15:50:15.511Z,32.50
2022-08-02T15:54:17.274Z,32.60
2022-08-02T15:58:22.563Z,32.50
2022-08-02T16:02:21.846Z,32.40
2022-08-02T16:06:23.266Z,32.30
2022-08-02T16:10:26.310Z,32.40
2022-08-02T16:14:27.549Z,32.20
2022-08-02T16:18:28.774Z,32.20
2022-08-02T16:22:30.094Z,32.20
2022-08-02T16:26:33.463Z,31.80
2022-08-02T16:30:35.181Z,31.60
2022-08-02T16:34:57.155Z,31.70
2022-08-02T16:38:39.542Z,32.20
2022-08-02T16:42:40.863Z,32.00
2022-08-02T16:46:45.119Z,32.00
2022-08-02T16:50:46.794Z,31.70
2022-08-02T16:54:49.410Z,31.70
2022-08-02T16:58:51.083Z,31.80
2022-08-02T17:02:52.707Z,31.30
2022-08-02T17:06:53.853Z,30.90
2022-08-02T17:10:55.068Z,31.40
2022-08-02T17:14:56.283Z,31.30
2022-08-02T17:18:59.303Z,31.30
2022-08-02T17:23:00.942Z,31.00
2022-08-02T17:27:02.292Z,30.70
2022-08-02T17:31:03.531Z,30.50
2022-08-02T17:35:05.943Z,30.70
2022-08-02T17:39:08.964Z,30.50
2022-08-02T17:43:14.679Z,30.50
2022-08-02T17:47:13.200Z,30.70
2022-08-02T17:51:14.433Z,30.50
2022-08-02T17:55:18.636Z,30.50
2022-08-02T17:59:22.741Z,30.40
2022-08-02T18:03:25.767Z,30.40
2022-08-02T18:07:30.100Z,30.20
2022-08-02T18:11:52.359Z,30.00
2022-08-02T18:15:33.736Z,29.80
2022-08-02T18:19:42.767Z,29.80
2022-08-02T18:23:38.523Z,29.90
2022-08-02T18:27:41.562Z,30.00
2022-08-02T18:31:51.171Z,29.80
2022-08-02T18:35:48.034Z,29.60
2022-08-02T18:39:51.862Z,29.50
2022-08-02T18:43:52.364Z,29.60
2022-08-02T18:47:53.490Z,29.60
2022-08-02T18:51:54.718Z,29.70
2022-08-02T18:55:59.641Z,29.70
2022-08-02T19:00:00.079Z,29.40
2022-08-02T19:04:03.819Z,29.50
2022-08-02T19:08:05.324Z,29.20
2022-08-02T19:12:07.443Z,29.10
2022-08-02T19:16:08.658Z,28.90
2022-08-02T19:20:10.620Z,28.90
2022-08-02T19:24:13.623Z,28.90
2022-08-02T19:28:16.656Z,28.50
2022-08-02T19:32:42.348Z,28.50
2022-08-02T19:36:23.239Z,28.40
2022-08-02T19:40:26.949Z,28.30
2022-08-02T19:44:29.502Z,28.20
2022-08-02T19:48:31.106Z,28.10
2022-08-02T19:52:32.248Z,28.20
2022-08-02T19:56:36.139Z,28.10
2022-08-02T20:00:37.365Z,27.70
2022-08-02T20:04:38.567Z,27.30
2022-08-02T20:08:40.095Z,27.30
2022-08-02T20:12:43.104Z,27.30
2022-08-02T20:16:46.011Z,27.30
2022-08-02T20:20:47.251Z,27.20
2022-08-02T20:24:48.535Z,27.20
2022-08-02T20:28:49.753Z,27.20
2022-08-02T20:32:55.321Z,27.00
2022-08-02T20:36:56.218Z,27.00
2022-08-02T20:40:58.260Z,26.80
2022-08-02T20:44:59.602Z,26.60
2022-08-02T20:49:05.498Z,26.50
2022-08-02T20:53:04.352Z,26.50
2022-08-02T20:57:05.555Z,26.40
2022-08-02T21:01:08.598Z,26.50
2022-08-02T21:05:17.551Z,26.50
2022-08-02T21:09:13.143Z,26.30
2022-08-02T21:13:19.067Z,26.00
2022-08-02T21:17:18.121Z,25.90
2022-08-02T21:21:20.420Z,26.10
2022-08-02T21:25:42.395Z,26.10
2022-08-02T21:29:25.394Z,26.00
2022-08-02T21:33:28.575Z,25.80
2022-08-02T21:37:44.587Z,25.50
2022-08-02T21:41:39.759Z,25.30
2022-08-02T21:45:39.345Z,25.50
2022-08-02T21:50:13.772Z,25.70
2022-08-02T21:54:18.026Z,25.50
2022-08-02T21:57:48.426Z,25.40
2022-08-02T22:01:52.323Z,25.20
2022-08-02T22:05:53.083Z,25.20
2022-08-02T22:09:55.508Z,25.40
2022-08-02T22:13:56.730Z,25.20
2022-08-02T22:18:00.064Z,24.90
2022-08-02T22:22:00.891Z,24.80
2022-08-02T22:26:02.144Z,24.70
2022-08-02T22:30:04.487Z,24.60
2022-08-02T22:34:26.792Z,24.60
2022-08-02T22:38:16.844Z,24.40
2022-08-02T22:42:13.909Z,24.40
2022-08-02T22:46:16.698Z,24.40
2022-08-02T22:50:18.267Z,24.20
2022-08-02T22:54:20.569Z,24.10
2022-08-02T22:58:23.649Z,24.00
2022-08-02T23:02:26.754Z,23.90
2022-08-02T23:06:27.984Z,23.80
2022-08-02T23:10:29.212Z,23.80
2022-08-02T23:14:30.632Z,23.50
2022-08-02T23:18:50.316Z,23.60
2022-08-02T23:22:51.638Z,23.50
2022-08-02T23:26:53.039Z,23.40
2022-08-02T23:30:54.171Z,23.40
2022-08-02T23:34:56.600Z,23.30
2022-08-02T23:38:59.202Z,23.30
2022-08-02T23:43:00.754Z,23.20
2022-08-02T23:47:06.142Z,23.20
2022-08-02T23:51:07.239Z,23.10
2022-08-02T23:55:08.874Z,23.10
2022-08-02T23:59:10.212Z,23.10
